Time;durP1;ratioP1;P1;durP2;ratioP2;P2;SDS_P1;SDS_P2;PMS_P1;PMS_P2;Temp;Humidity;BMP_temperature;BMP_pressure;BME280_temperature;BME280_humidity;BME280_pressure;Samples;Min_cycle;Max_cycle;Signal;HPM_P1;HPM_P2
2024/03/23 00:00:27;;;;;;;0.30;0.20;;;;;;;8.74;96.45;99474.31;5035612;28;20490;-51
2024/03/23 00:02:53;;;;;;;0.30;0.20;;;;;;;8.77;96.48;99477.75;5022062;28;20491;-50
2024/03/23 00:05:20;;;;;;;0.30;0.20;;;;;;;8.61;96.13;99469.44;5035372;28;20467;-51
2024/03/23 00:07:47;;;;;;;0.30;0.20;;;;;;;8.51;96.68;99478.63;5031134;28;20459;-51
2024/03/23 00:10:13;;;;;;;0.30;0.20;;;;;;;8.61;97.40;99466.78;5026616;28;20495;-51
2024/03/23 00:12:40;;;;;;;0.30;0.20;;;;;;;8.75;96.97;99463.66;5031220;28;20470;-51
2024/03/23 00:15:06;;;;;;;0.30;0.20;;;;;;;8.63;97.44;99460.56;5022268;28;20839;-50
2024/03/23 00:17:33;;;;;;;0.30;0.20;;;;;;;8.74;97.83;99459.28;5028954;28;20456;-50
2024/03/23 00:19:59;;;;;;;0.30;0.20;;;;;;;8.92;97.14;99459.59;5026445;28;20487;-50
2024/03/23 00:22:26;;;;;;;0.30;0.20;;;;;;;8.98;97.68;99456.72;5030757;28;21006;-50
2024/03/23 00:24:53;;;;;;;0.30;0.20;;;;;;;9.18;97.04;99456.84;5026305;28;20520;-50
2024/03/23 00:27:19;;;;;;;0.30;0.20;;;;;;;9.36;96.20;99452.69;5022098;28;20463;-50
2024/03/23 00:29:46;;;;;;;0.30;0.20;;;;;;;9.31;96.36;99454.59;5035314;28;20479;-51
2024/03/23 00:32:12;;;;;;;0.30;0.20;;;;;;;9.12;97.32;99451.78;5026531;28;20482;-50
2024/03/23 00:34:39;;;;;;;0.30;0.20;;;;;;;9.32;96.83;99429.81;5048005;28;20485;-51
2024/03/23 00:37:05;;;;;;;0.30;0.20;;;;;;;9.29;96.79;99428.16;5022443;28;20455;-51
2024/03/23 00:39:32;;;;;;;0.30;0.20;;;;;;;9.31;97.02;99426.31;5035153;28;20479;-51
2024/03/23 00:41:59;;;;;;;0.30;0.20;;;;;;;9.34;97.49;99423.56;5034633;28;20490;-50
2024/03/23 00:44:27;;;;;;;0.30;0.20;;;;;;;9.50;97.34;99434.47;5034817;28;20859;-50
2024/03/23 00:46:55;;;;;;;0.30;0.20;;;;;;;9.62;96.05;99420.72;5018586;28;20470;-50
2024/03/23 00:49:21;;;;;;;0.30;0.20;;;;;;;9.22;96.91;99408.09;5033838;28;20471;-51
2024/03/23 00:51:48;;;;;;;0.30;0.20;;;;;;;9.39;97.58;99404.81;5022606;28;20459;-51
2024/03/23 00:54:13;;;;;;;0.30;0.20;;;;;;;9.39;97.70;99413.63;5033956;28;20462;-51
2024/03/23 00:56:39;;;;;;;0.30;0.20;;;;;;;9.47;97.29;99402.75;5023331;28;20846;-51
2024/03/23 00:59:04;;;;;;;26.83;6.17;;;;;;;9.74;96.11;99412.28;5028937;28;20274;-51
2024/03/23 01:01:30;;;;;;;0.30;0.20;;;;;;;9.54;96.66;99406.88;5011037;28;20265;-51
2024/03/23 01:03:55;;;;;;;0.30;0.20;;;;;;;9.47;97.56;99400.97;5028545;28;20258;-51
2024/03/23 01:06:21;;;;;;;0.30;0.20;;;;;;;9.53;97.46;99397.19;5034600;28;20259;-51
2024/03/23 01:08:46;;;;;;;0.60;0.60;;;;;;;9.46;97.76;99401.88;5021208;28;20249;-51
2024/03/23 01:11:12;;;;;;;0.30;0.20;;;;;;;9.48;98.27;99400.03;5034747;28;20228;-51
2024/03/23 01:13:37;;;;;;;0.30;0.20;;;;;;;9.48;98.01;99386.78;5032133;28;20616;-50
2024/03/23 01:16:03;;;;;;;0.30;0.20;;;;;;;9.54;97.74;99384.78;5034288;28;20254;-51
2024/03/23 01:18:29;;;;;;;0.30;0.20;;;;;;;9.63;97.31;99390.59;5021519;28;20288;-51
2024/03/23 01:20:54;;;;;;;0.30;0.20;;;;;;;9.46;98.39;99385.97;5014837;28;20221;-52
2024/03/23 01:23:20;;;;;;;0.30;0.20;;;;;;;9.55;98.38;99384.72;5027703;28;20594;-52
2024/03/23 01:25:53;;;;;;;0.30;0.20;;;;;;;9.62;97.96;99378.28;5016504;28;20223;-52
2024/03/23 01:28:20;;;;;;;0.30;0.20;;;;;;;9.53;98.07;99372.44;5028019;28;20216;-52
2024/03/23 01:30:45;;;;;;;0.30;0.20;;;;;;;9.44;97.79;99378.97;5022199;28;20459;-52
2024/03/23 01:33:11;;;;;;;0.30;0.20;;;;;;;9.22;97.91;99370.13;5034618;28;20455;-51
2024/03/23 01:35:36;;;;;;;0.30;0.20;;;;;;;9.13;97.89;99366.03;5046793;28;20221;-51
2024/03/23 01:38:02;;;;;;;0.30;0.20;;;;;;;9.08;98.86;99365.34;5033493;28;20581;-51
2024/03/23 01:40:31;;;;;;;0.30;0.20;;;;;;;8.98;98.41;99359.50;5034008;28;20236;-51
2024/03/23 01:43:07;;;;;;;0.30;0.20;;;;;;;8.77;99.34;99352.31;5020602;28;20232;-51
2024/03/23 01:45:33;;;;;;;0.30;0.20;;;;;;;8.76;99.13;99340.88;5034414;28;20499;-51
2024/03/23 01:47:59;;;;;;;0.30;0.20;;;;;;;8.81;98.99;99335.44;5031201;28;20459;-51
2024/03/23 01:50:26;;;;;;;0.30;0.20;;;;;;;9.05;98.91;99333.66;5034284;28;20712;-51
2024/03/23 01:52:51;;;;;;;0.30;0.20;;;;;;;8.99;98.28;99339.16;5067117;28;20521;-50
2024/03/23 01:55:17;;;;;;;0.30;0.20;;;;;;;9.00;98.48;99339.09;5034011;28;20562;-51
2024/03/23 01:57:42;;;;;;;0.30;0.20;;;;;;;8.92;98.82;99333.25;5020781;28;20225;-51
2024/03/23 02:00:10;;;;;;;0.30;0.20;;;;;;;8.89;98.52;99328.03;5033713;28;20647;-51
2024/03/23 02:02:35;;;;;;;0.30;0.20;;;;;;;8.81;99.04;99323.03;5031699;28;20240;-51
2024/03/23 02:05:01;;;;;;;0.30;0.20;;;;;;;8.78;100.00;99320.50;5023060;28;20459;-51
2024/03/23 02:07:27;;;;;;;0.30;0.20;;;;;;;8.93;100.00;99313.78;5033462;28;20358;-52
2024/03/23 02:09:53;;;;;;;0.30;0.20;;;;;;;9.01;99.79;99309.03;5066992;28;20331;-51
2024/03/23 02:12:19;;;;;;;0.30;0.20;;;;;;;9.18;99.34;99311.03;5032109;28;20589;-51
2024/03/23 02:14:45;;;;;;;0.30;0.20;;;;;;;9.16;98.57;99311.09;5023067;28;20465;-50
2024/03/23 02:17:10;;;;;;;0.30;0.20;;;;;;;9.12;99.25;99306.84;5031888;28;20459;-51
2024/03/23 02:19:36;;;;;;;0.30;0.20;;;;;;;9.23;98.92;99309.06;5022432;28;20240;-51
2024/03/23 02:22:02;;;;;;;0.30;0.20;;;;;;;9.25;98.95;99316.97;5031658;28;20685;-51
2024/03/23 02:24:29;;;;;;;0.30;0.20;;;;;;;9.34;98.96;99308.66;5022633;28;20248;-52
2024/03/23 02:26:54;;;;;;;0.30;0.20;;;;;;;9.24;99.19;99297.53;5020576;28;20213;-51
2024/03/23 02:29:20;;;;;;;0.30;0.20;;;;;;;9.16;99.84;99303.13;5033926;28;20536;-52
2024/03/23 02:31:46;;;;;;;0.30;0.20;;;;;;;9.25;99.87;99293.97;5020538;28;20351;-51
2024/03/23 02:34:11;;;;;;;0.30;0.20;;;;;;;9.19;99.57;99294.22;5041795;28;20582;-50
2024/03/23 02:36:37;;;;;;;0.30;0.20;;;;;;;9.19;99.69;99288.91;5033770;28;20696;-51
2024/03/23 02:39:03;;;;;;;0.30;0.20;;;;;;;9.15;99.83;99281.97;5025242;28;20243;-52
2024/03/23 02:41:28;;;;;;;0.30;0.20;;;;;;;9.02;100.00;99273.63;5029029;28;20236;-50
2024/03/23 02:43:54;;;;;;;0.30;0.20;;;;;;;9.20;100.00;99280.91;5033797;28;20681;-50
2024/03/23 02:46:19;;;;;;;0.30;0.20;;;;;;;9.23;100.00;99279.03;5033378;28;20279;-51
2024/03/23 02:48:45;;;;;;;0.30;0.20;;;;;;;9.21;100.00;99260.56;5036185;28;20248;-51
2024/03/23 02:51:10;;;;;;;0.30;0.20;;;;;;;8.92;100.00;99245.78;5036956;28;20656;-51
2024/03/23 02:53:36;;;;;;;0.30;0.20;;;;;;;9.18;100.00;99261.53;5028832;28;20231;-51
2024/03/23 02:56:01;;;;;;;0.30;0.20;;;;;;;9.27;100.00;99273.56;5030323;28;20220;-51
2024/03/23 02:58:27;;;;;;;0.30;0.20;;;;;;;9.39;100.00;99262.47;5025593;28;20746;-51
2024/03/23 03:00:53;;;;;;;0.30;0.20;;;;;;;9.17;100.00;99258.91;5035493;28;20277;-51
2024/03/23 03:03:18;;;;;;;0.30;0.20;;;;;;;9.50;100.00;99259.38;5026510;28;20307;-51
2024/03/23 03:05:44;;;;;;;0.30;0.20;;;;;;;9.38;100.00;99250.13;5035436;28;20291;-52
2024/03/23 03:08:09;;;;;;;0.30;0.20;;;;;;;9.51;100.00;99253.16;5024838;28;20232;-52
2024/03/23 03:10:36;;;;;;;3.90;2.93;;;;;;;9.53;100.00;99261.03;5035508;28;20227;-51
2024/03/23 03:13:02;;;;;;;0.30;0.20;;;;;;;9.63;100.00;99268.56;5024806;28;20235;-52
2024/03/23 03:15:27;;;;;;;0.30;0.20;;;;;;;10.00;100.00;99256.38;5035537;28;20459;-52
2024/03/23 03:17:53;;;;;;;0.30;0.20;;;;;;;9.74;99.87;99262.81;5016915;28;20499;-51
2024/03/23 03:20:19;;;;;;;0.30;0.20;;;;;;;9.70;99.87;99254.09;5031111;28;20267;-52
2024/03/23 03:22:44;;;;;;;0.47;0.47;;;;;;;10.13;98.98;99248.75;5028808;28;20732;-51
2024/03/23 03:25:10;;;;;;;0.30;0.20;;;;;;;9.96;99.25;99253.00;5029887;28;20220;-51
2024/03/23 03:27:35;;;;;;;0.30;0.20;;;;;;;10.06;99.34;99258.78;5024238;28;20299;-51
2024/03/23 03:30:02;;;;;;;0.30;0.20;;;;;;;10.03;99.42;99256.28;5035528;28;20240;-52
2024/03/23 03:32:30;;;;;;;0.30;0.20;;;;;;;9.92;100.00;99261.16;5035554;28;20207;-52
2024/03/23 03:34:56;;;;;;;0.30;0.20;;;;;;;9.89;100.00;99258.66;5047794;28;20458;-51
2024/03/23 03:37:21;;;;;;;0.30;0.20;;;;;;;9.84;100.00;99268.59;5024829;28;20528;-51
2024/03/23 03:39:47;;;;;;;0.30;0.20;;;;;;;9.82;100.00;99266.00;5034459;28;20236;-52
2024/03/23 03:42:12;;;;;;;0.30;0.20;;;;;;;10.01;100.00;99272.28;5026738;28;20251;-52
2024/03/23 03:44:39;;;;;;;0.30;0.20;;;;;;;9.96;100.00;99270.72;5034447;28;20588;-52
2024/03/23 03:47:06;;;;;;;0.30;0.20;;;;;;;9.98;100.00;99283.00;5034237;28;20262;-51
2024/03/23 03:49:31;;;;;;;7.13;6.70;;;;;;;10.32;100.00;99303.69;5035999;28;20490;-51
2024/03/23 03:51:57;;;;;;;0.30;0.20;;;;;;;10.39;100.00;99314.91;5035951;28;20792;-51
2024/03/23 03:54:22;;;;;;;0.30;0.20;;;;;;;10.42;100.00;99321.91;5022608;28;20312;-51
2024/03/23 03:56:48;;;;;;;0.30;0.20;;;;;;;10.27;100.00;99340.19;5027684;28;20228;-51
2024/03/23 03:59:14;;;;;;;0.30;0.20;;;;;;;9.98;100.00;99348.50;5029401;28;20236;-51
2024/03/23 04:01:39;;;;;;;0.30;0.20;;;;;;;9.99;100.00;99331.66;5029136;28;20278;-51
2024/03/23 04:04:05;;;;;;;0.30;0.20;;;;;;;9.78;100.00;99328.97;5035378;28;20458;-50
2024/03/23 04:06:30;;;;;;;0.30;0.20;;;;;;;9.50;100.00;99333.66;5024919;28;20673;-51
2024/03/23 04:08:56;;;;;;;0.30;0.20;;;;;;;9.57;100.00;99329.81;5035218;28;20244;-50
2024/03/23 04:11:21;;;;;;;0.30;0.20;;;;;;;9.62;100.00;99334.97;5024742;28;20307;-51
2024/03/23 04:13:47;;;;;;;0.30;0.20;;;;;;;9.63;100.00;99334.88;5035959;28;20349;-50
2024/03/23 04:16:24;;;;;;;0.30;0.20;;;;;;;9.82;100.00;99334.13;5020865;28;20682;-51
2024/03/23 04:18:49;;;;;;;0.30;0.20;;;;;;;9.91;100.00;99334.63;5031117;28;20831;-51
2024/03/23 04:21:15;;;;;;;0.30;0.20;;;;;;;10.00;100.00;99342.19;5026923;28;20463;-51
2024/03/23 04:23:40;;;;;;;0.30;0.20;;;;;;;10.19;99.64;99352.94;5030693;28;20732;-51
2024/03/23 04:26:06;;;;;;;0.30;0.20;;;;;;;10.28;99.43;99351.69;5026550;28;20217;-51
2024/03/23 04:28:31;;;;;;;0.30;0.20;;;;;;;10.13;98.79;99352.31;5030572;28;20267;-51
2024/03/23 04:30:57;;;;;;;0.30;0.20;;;;;;;10.07;98.90;99362.25;5035496;28;20291;-51
2024/03/23 04:33:22;;;;;;;0.30;0.20;;;;;;;9.91;98.40;99370.94;5024568;28;20221;-51
2024/03/23 04:35:49;;;;;;;0.30;0.20;;;;;;;9.95;98.13;99380.50;5046496;28;20342;-51
2024/03/23 04:38:16;;;;;;;0.30;0.20;;;;;;;9.91;98.34;99385.06;5022028;28;20282;-51
2024/03/23 04:40:41;;;;;;;0.30;0.20;;;;;;;9.96;97.69;99383.06;5034943;28;20458;-50
2024/03/23 04:43:07;;;;;;;0.30;0.20;;;;;;;9.95;96.63;99388.44;5034682;28;20583;-51
2024/03/23 04:45:32;;;;;;;0.30;0.20;;;;;;;10.10;95.03;99401.97;5025890;28;20217;-51
2024/03/23 04:47:58;;;;;;;0.30;0.20;;;;;;;9.96;95.18;99416.72;5031035;28;20220;-51
2024/03/23 04:50:23;;;;;;;0.30;0.20;;;;;;;9.74;94.93;99411.41;5034712;28;20327;-51
2024/03/23 04:52:49;;;;;;;0.30;0.20;;;;;;;10.14;95.21;99412.44;5032229;28;20208;-51
2024/03/23 04:55:14;;;;;;;0.30;0.20;;;;;;;10.23;95.79;99431.56;5023737;28;20215;-51
2024/03/23 04:57:40;;;;;;;0.30;0.20;;;;;;;10.34;95.00;99423.16;5021764;28;20267;-51
2024/03/23 05:00:16;;;;;;;0.30;0.20;;;;;;;10.31;93.81;99424.16;5034999;28;20232;-51
2024/03/23 05:02:43;;;;;;;0.30;0.20;;;;;;;10.21;94.62;99432.53;5021220;28;20240;-51
2024/03/23 05:05:09;;;;;;;0.30;0.20;;;;;;;10.17;95.99;99433.59;5034747;28;20831;-51
2024/03/23 05:07:34;;;;;;;0.30;0.20;;;;;;;10.10;96.57;99449.75;5021090;28;20459;-51
2024/03/23 05:10:00;;;;;;;0.30;0.20;;;;;;;9.92;97.63;99458.47;5025493;28;20775;-48
2024/03/23 05:12:25;;;;;;;0.30;0.20;;;;;;;9.97;97.70;99455.63;5031334;28;20316;-48
2024/03/23 05:14:51;;;;;;;0.30;0.20;;;;;;;10.05;95.84;99450.88;5024902;28;20703;-48
2024/03/23 05:17:17;;;;;;;0.30;0.20;;;;;;;10.05;93.87;99448.22;5031261;28;20662;-48
2024/03/23 05:19:42;;;;;;;0.30;0.20;;;;;;;10.17;93.70;99437.13;5023920;28;20568;-50
2024/03/23 05:22:10;;;;;;;0.30;0.20;;;;;;;9.98;94.58;99434.31;5017533;28;20768;-48
2024/03/23 05:24:35;;;;;;;0.30;0.20;;;;;;;10.23;92.50;99442.19;5034528;28;20466;-47
2024/03/23 05:27:01;;;;;;;0.30;0.20;;;;;;;10.15;93.77;99467.31;5023300;28;20632;-48
2024/03/23 05:29:26;;;;;;;0.30;0.20;;;;;;;9.74;94.85;99486.59;5023811;28;20236;-48
2024/03/23 05:31:52;;;;;;;0.30;0.20;;;;;;;9.63;95.48;99486.13;5032016;28;20247;-49
2024/03/23 05:34:18;;;;;;;0.30;0.20;;;;;;;9.48;96.27;99492.00;5029203;28;20248;-47
2024/03/23 05:36:43;;;;;;;0.30;0.20;;;;;;;9.47;95.91;99490.28;5026433;28;20277;-48
2024/03/23 05:39:09;;;;;;;0.30;0.20;;;;;;;9.72;96.61;99498.16;5014622;28;20291;-48
2024/03/23 05:41:36;;;;;;;0.30;0.20;;;;;;;9.52;95.26;99504.22;5030770;28;20315;-48
2024/03/23 05:44:02;;;;;;;0.30;0.20;;;;;;;9.49;94.64;99504.34;5034486;28;20212;-47
2024/03/23 05:46:28;;;;;;;0.30;0.20;;;;;;;9.77;93.84;99493.56;5023864;28;20462;-48
2024/03/23 05:48:53;;;;;;;0.30;0.20;;;;;;;9.80;93.95;99494.31;5031399;28;20506;-48
2024/03/23 05:51:19;;;;;;;0.30;0.20;;;;;;;9.80;94.20;99502.28;5029694;28;20231;-48
2024/03/23 05:53:45;;;;;;;0.30;0.20;;;;;;;9.59;93.77;99510.16;5034318;28;20212;-48
2024/03/23 05:56:10;;;;;;;0.30;0.20;;;;;;;9.79;92.22;99518.25;5027562;28;20743;-47
2024/03/23 05:58:36;;;;;;;0.30;0.20;;;;;;;9.88;93.24;99533.84;5023696;28;20263;-49
2024/03/23 06:01:02;;;;;;;0.30;0.20;;;;;;;9.71;92.84;99530.94;5020153;28;20249;-49
2024/03/23 06:03:28;;;;;;;0.30;0.20;;;;;;;9.75;92.75;99525.47;5033574;28;20229;-48
2024/03/23 06:05:55;;;;;;;0.30;0.13;;;;;;;9.94;93.96;99533.59;5023123;28;20471;-48
2024/03/23 06:08:20;;;;;;;0.30;0.20;;;;;;;10.07;90.85;99555.22;5023678;28;20466;-47
2024/03/23 06:10:46;;;;;;;0.30;0.20;;;;;;;10.09;90.85;99577.28;5033768;28;20613;-47
2024/03/23 06:13:12;;;;;;;0.30;0.20;;;;;;;10.11;89.93;99578.09;5034145;28;20212;-48
2024/03/23 06:15:38;;;;;;;0.30;0.20;;;;;;;10.14;89.13;99583.28;5023491;28;20880;-47
2024/03/23 06:18:04;;;;;;;0.30;0.20;;;;;;;9.65;90.95;99600.16;5033950;28;20462;-48
2024/03/23 06:20:30;;;;;;;0.30;0.20;;;;;;;9.56;93.17;99611.97;5036863;28;20319;-48
2024/03/23 06:22:56;;;;;;;0.30;0.20;;;;;;;9.34;93.12;99608.34;5037741;28;20495;-47
2024/03/23 06:25:21;;;;;;;0.30;0.20;;;;;;;9.47;90.32;99617.59;5029003;28;20220;-48
2024/03/23 06:27:47;;;;;;;0.30;0.20;;;;;;;9.38;88.93;99631.19;5023173;28;20213;-47
2024/03/23 06:30:13;;;;;;;0.30;0.20;;;;;;;9.48;87.55;99630.81;5021463;28;20327;-48
2024/03/23 06:32:38;;;;;;;0.30;0.20;;;;;;;9.48;86.09;99633.47;5037672;28;20291;-48
2024/03/23 06:35:09;;;;;;;0.30;0.20;;;;;;;9.67;86.43;99632.81;5047595;28;20284;-48
2024/03/23 06:37:35;;;;;;;0.30;0.20;;;;;;;9.87;85.43;99632.09;5017691;28;20674;-47
2024/03/23 06:40:01;;;;;;;0.30;0.20;;;;;;;9.62;85.95;99633.00;5029506;28;20479;-48
2024/03/23 06:42:26;;;;;;;0.30;0.20;;;;;;;9.14;87.99;99636.38;5027176;28;20486;-47
2024/03/23 06:44:52;;;;;;;0.30;0.20;;;;;;;9.43;87.55;99627.44;5035135;28;20220;-47
2024/03/23 06:47:17;;;;;;;0.30;0.20;;;;;;;9.62;86.83;99634.78;5036535;28;20223;-48
2024/03/23 06:49:43;;;;;;;0.30;0.20;;;;;;;9.77;86.48;99640.41;5033654;28;20781;-48
2024/03/23 06:52:08;;;;;;;0.30;0.20;;;;;;;9.71;85.51;99643.25;5027661;28;20232;-48
2024/03/23 06:54:34;;;;;;;0.30;0.20;;;;;;;9.57;84.63;99648.19;5037391;28;20209;-47
2024/03/23 06:57:00;;;;;;;0.30;0.20;;;;;;;9.55;85.47;99663.28;5033997;28;20299;-48
2024/03/23 06:59:25;;;;;;;0.30;0.20;;;;;;;9.48;87.06;99665.31;5031519;28;20319;-47
2024/03/23 07:01:51;;;;;;;0.30;0.20;;;;;;;9.74;84.62;99682.13;5022395;28;20244;-48
2024/03/23 07:04:16;;;;;;;0.30;0.20;;;;;;;9.87;84.08;99683.41;5033409;28;20226;-48
2024/03/23 07:06:43;;;;;;;0.30;0.20;;;;;;;9.63;85.90;99690.44;5027201;28;20223;-48
2024/03/23 07:09:09;;;;;;;0.67;0.67;;;;;;;9.78;85.33;99700.53;5033438;28;20239;-49
2024/03/23 07:11:34;;;;;;;0.30;0.20;;;;;;;9.66;83.81;99702.72;5037150;28;20521;-48
2024/03/23 07:14:00;;;;;;;0.30;0.20;;;;;;;9.64;82.92;99709.88;5035834;28;20234;-50
2024/03/23 07:16:27;;;;;;;0.30;0.20;;;;;;;9.48;82.80;99713.06;5032521;28;20295;-50
2024/03/23 07:18:52;;;;;;;0.30;0.20;;;;;;;9.73;82.63;99725.47;5036895;28;20236;-49
2024/03/23 07:21:17;;;;;;;0.30;0.20;;;;;;;9.25;84.30;99720.88;5036227;28;20508;-49
2024/03/23 07:23:46;;;;;;;0.30;0.20;;;;;;;9.65;82.16;99732.84;5023105;28;20682;-49
2024/03/23 07:26:12;;;;;;;0.30;0.20;;;;;;;9.41;82.58;99723.91;5020245;28;20209;-50
2024/03/23 07:28:42;;;;;;;0.30;0.20;;;;;;;9.22;83.76;99739.56;5036749;28;20557;-47
2024/03/23 07:31:14;;;;;;;0.30;0.20;;;;;;;9.19;83.54;99750.28;5035701;28;20212;-47
2024/03/23 07:33:44;;;;;;;0.30;0.20;;;;;;;9.35;82.84;99748.00;5041598;28;20983;-48
2024/03/23 07:36:10;;;;;;;0.30;0.20;;;;;;;9.58;80.58;99753.38;5046089;28;20451;-47
2024/03/23 07:38:36;;;;;;;0.30;0.20;;;;;;;9.36;82.99;99747.94;5006610;28;20529;-48
2024/03/23 07:41:06;;;;;;;0.30;0.20;;;;;;;9.35;84.88;99748.00;5036141;28;20220;-48
2024/03/23 07:43:31;;;;;;;0.30;0.20;;;;;;;9.46;85.75;99751.16;5030243;28;20236;-47
2024/03/23 07:45:57;;;;;;;0.30;0.20;;;;;;;9.70;85.34;99750.31;5028461;28;20478;-48
2024/03/23 07:48:23;;;;;;;0.30;0.20;;;;;;;9.60;83.80;99751.56;5034538;28;20263;-47
2024/03/23 07:50:57;;;;;;;0.30;0.20;;;;;;;9.62;83.78;99749.75;5036132;28;20271;-48
2024/03/23 07:53:23;;;;;;;0.30;0.20;;;;;;;9.80;82.15;99758.84;5032645;28;20525;-49
2024/03/23 07:55:56;;;;;;;0.30;0.20;;;;;;;9.82;80.95;99746.41;5035611;28;20463;-48
2024/03/23 07:58:22;;;;;;;0.30;0.20;;;;;;;9.91;80.94;99764.66;5029543;28;20208;-48
2024/03/23 08:00:47;;;;;;;0.30;0.20;;;;;;;9.92;80.26;99760.22;5019233;28;20494;-48
2024/03/23 08:03:13;;;;;;;0.30;0.20;;;;;;;10.61;80.03;99770.16;5035527;28;20228;-48
2024/03/23 08:05:39;;;;;;;0.30;0.20;;;;;;;10.49;79.56;99769.75;5034187;28;20219;-48
2024/03/23 08:08:04;;;;;;;0.30;0.20;;;;;;;10.80;79.37;99764.13;5020817;28;20483;-49
2024/03/23 08:10:30;;;;;;;0.30;0.20;;;;;;;10.83;78.15;99770.22;5033276;28;20247;-48
2024/03/23 08:12:55;;;;;;;0.30;0.20;;;;;;;10.68;78.50;99754.81;5035666;28;20251;-48
2024/03/23 08:15:21;;;;;;;0.30;0.20;;;;;;;10.80;78.52;99756.16;5034280;28;20580;-48
2024/03/23 08:17:47;;;;;;;0.30;0.20;;;;;;;10.71;78.12;99764.50;5027007;28;20224;-47
2024/03/23 08:20:12;;;;;;;0.30;0.20;;;;;;;10.74;78.77;99759.94;5000493;28;20713;-49
2024/03/23 08:22:38;;;;;;;0.30;0.20;;;;;;;10.69;78.80;99761.91;5033403;28;20268;-48
2024/03/23 08:25:04;;;;;;;0.30;0.20;;;;;;;10.91;77.33;99759.28;5028318;28;20230;-48
2024/03/23 08:27:29;;;;;;;0.30;0.20;;;;;;;10.94;77.64;99756.50;5026190;28;20212;-48
2024/03/23 08:29:55;;;;;;;0.30;0.20;;;;;;;11.16;75.83;99752.09;5022339;28;20316;-49
2024/03/23 08:32:20;;;;;;;0.60;0.60;;;;;;;11.54;75.10;99752.34;5028298;28;20286;-49
2024/03/23 08:34:45;;;;;;;0.30;0.20;;;;;;;11.34;73.26;99754.94;5036143;28;20307;-49
2024/03/23 08:37:11;;;;;;;0.30;0.20;;;;;;;11.20;71.45;99767.00;5035048;28;20259;-49
2024/03/23 08:39:37;;;;;;;0.30;0.20;;;;;;;11.18;69.21;99763.53;5033000;28;20712;-49
2024/03/23 08:42:02;;;;;;;0.30;0.20;;;;;;;11.16;71.78;99754.75;5027465;28;20319;-47
2024/03/23 08:44:28;;;;;;;0.30;0.20;;;;;;;10.94;72.36;99764.47;5034714;28;20234;-47
2024/03/23 08:46:56;;;;;;;0.30;0.20;;;;;;;10.77;71.69;99764.25;5034497;28;20656;-48
2024/03/23 08:49:21;;;;;;;0.30;0.20;;;;;;;11.05;72.42;99767.59;5024987;28;20232;-48
2024/03/23 08:51:47;;;;;;;0.30;0.20;;;;;;;11.28;72.70;99769.34;5034494;28;20462;-48
2024/03/23 08:54:12;;;;;;;0.30;0.20;;;;;;;11.65;72.40;99767.84;5021343;28;20220;-47
2024/03/23 08:56:38;;;;;;;0.30;0.20;;;;;;;12.00;72.08;99777.94;5030976;28;20263;-48
2024/03/23 08:59:03;;;;;;;0.30;0.20;;;;;;;11.62;67.76;99778.63;5032238;28;20254;-49
2024/03/23 09:01:30;;;;;;;0.30;0.20;;;;;;;11.60;66.19;99768.03;5021645;28;20216;-48
2024/03/23 09:03:55;;;;;;;0.30;0.20;;;;;;;11.73;65.42;99776.41;5027685;28;20885;-50
2024/03/23 09:06:21;;;;;;;0.30;0.20;;;;;;;11.41;64.76;99775.06;5021655;28;20219;-48
2024/03/23 09:08:46;;;;;;;0.30;0.20;;;;;;;11.47;64.42;99775.66;5034748;28;20301;-48
2024/03/23 09:11:13;;;;;;;0.30;0.20;;;;;;;11.52;63.85;99773.69;5028049;28;20220;-48
2024/03/23 09:13:39;;;;;;;0.30;0.20;;;;;;;11.37;64.25;99781.41;5028290;28;20219;-48
2024/03/23 09:16:06;;;;;;;0.30;0.20;;;;;;;11.35;63.96;99784.13;5014910;28;20460;-48
2024/03/23 09:18:33;;;;;;;0.30;0.20;;;;;;;11.70;63.56;99774.72;5027466;28;20866;-49
2024/03/23 09:20:58;;;;;;;0.30;0.20;;;;;;;11.86;63.43;99780.31;5021663;28;20489;-49
2024/03/23 09:23:24;;;;;;;0.30;0.20;;;;;;;12.07;61.74;99783.88;5021104;28;20487;-51
2024/03/23 09:25:50;;;;;;;0.30;0.20;;;;;;;12.12;63.81;99780.06;5033773;28;20208;-48
2024/03/23 09:28:15;;;;;;;0.30;0.20;;;;;;;11.96;60.72;99779.00;5021350;28;20674;-48
2024/03/23 09:30:44;;;;;;;0.30;0.20;;;;;;;11.78;61.87;99782.38;5034057;28;20236;-48
2024/03/23 09:33:10;;;;;;;0.30;0.20;;;;;;;11.96;59.56;99788.78;5022171;28;20573;-49
2024/03/23 09:35:40;;;;;;;0.30;0.20;;;;;;;11.98;60.32;99793.13;5040275;28;20533;-49
2024/03/23 09:38:07;;;;;;;0.30;0.20;;;;;;;12.05;59.09;99788.38;5028754;28;20466;-48
2024/03/23 09:40:33;;;;;;;0.30;0.20;;;;;;;12.12;58.63;99793.38;5029992;28;20472;-49
2024/03/23 09:42:59;;;;;;;0.30;0.20;;;;;;;12.15;56.92;99793.25;5020384;28;21000;-48
2024/03/23 09:45:29;;;;;;;0.30;0.20;;;;;;;12.28;56.43;99784.72;5034045;28;20459;-48
2024/03/23 09:47:55;;;;;;;0.30;0.20;;;;;;;12.46;56.00;99790.09;5033771;28;20592;-48
2024/03/23 09:50:20;;;;;;;0.30;0.20;;;;;;;12.65;56.21;99791.97;5033974;28;20470;-48
2024/03/23 09:52:46;;;;;;;0.30;0.20;;;;;;;12.58;55.95;99788.69;5033960;28;20963;-49
2024/03/23 09:55:12;;;;;;;0.30;0.20;;;;;;;12.59;54.99;99797.56;5033488;28;20654;-49
2024/03/23 09:57:37;;;;;;;0.30;0.20;;;;;;;12.49;54.95;99801.59;5030517;28;20792;-49
2024/03/23 10:00:04;;;;;;;0.30;0.20;;;;;;;12.12;56.43;99792.53;5027081;28;20233;-48
2024/03/23 10:02:30;;;;;;;0.30;0.20;;;;;;;12.41;56.26;99800.13;5032653;28;20232;-49
2024/03/23 10:04:57;;;;;;;0.30;0.20;;;;;;;11.95;54.70;99806.56;5038280;28;20520;-49
2024/03/23 10:07:22;;;;;;;0.30;0.20;;;;;;;11.76;54.47;99810.88;5036416;28;20474;-50
2024/03/23 10:09:48;;;;;;;0.30;0.20;;;;;;;11.70;55.31;99822.66;5026357;28;20490;-50
2024/03/23 10:12:16;;;;;;;0.30;0.20;;;;;;;11.15;60.51;99875.38;5036439;28;20219;-50
2024/03/23 10:14:43;;;;;;;0.30;0.20;;;;;;;10.54;66.89;99884.69;5027012;28;20283;-48
2024/03/23 10:17:19;;;;;;;0.30;0.20;;;;;;;10.01;71.06;99874.97;5021842;28;20460;-48
2024/03/23 10:19:47;;;;;;;0.30;0.20;;;;;;;9.60;73.80;99876.28;5038582;28;20489;-49
2024/03/23 10:22:19;;;;;;;0.30;0.20;;;;;;;9.15;76.91;99887.34;5025143;28;20552;-48
2024/03/23 10:24:46;;;;;;;0.30;0.20;;;;;;;9.35;78.86;99896.53;5038502;28;20454;-48
2024/03/23 10:27:19;;;;;;;0.30;0.20;;;;;;;8.92;80.92;99896.91;5025025;28;20466;-50
2024/03/23 10:29:49;;;;;;;0.30;0.20;;;;;;;8.88;81.37;99909.34;5038279;28;20490;-48
2024/03/23 10:32:16;;;;;;;0.30;0.20;;;;;;;8.38;85.58;99926.63;5025274;28;20451;-49
2024/03/23 10:34:41;;;;;;;0.30;0.20;;;;;;;8.01;87.12;99933.63;5052342;28;20462;-48
2024/03/23 10:37:08;;;;;;;0.30;0.20;;;;;;;7.94;88.12;99924.09;5018909;28;20475;-48
2024/03/23 10:39:38;;;;;;;0.30;0.20;;;;;;;7.51;90.67;99933.91;5031501;28;20232;-48
2024/03/23 10:42:06;;;;;;;0.30;0.20;;;;;;;7.57;91.74;99934.66;5037521;28;21036;-48
2024/03/23 10:44:32;;;;;;;0.30;0.20;;;;;;;7.58;92.12;99932.91;5037331;28;20470;-48
2024/03/23 10:47:01;;;;;;;0.30;0.20;;;;;;;7.71;90.90;99927.28;5024598;28;20512;-49
2024/03/23 10:49:29;;;;;;;0.30;0.20;;;;;;;7.63;91.84;99909.84;5037244;28;20486;-50
2024/03/23 10:51:57;;;;;;;0.30;0.20;;;;;;;7.88;92.11;99887.22;5037737;28;20528;-48
2024/03/23 10:54:24;;;;;;;0.30;0.20;;;;;;;8.02;91.43;99878.94;5037491;28;20989;-48
2024/03/23 10:56:56;;;;;;;0.30;0.20;;;;;;;7.81;88.93;99852.97;5028859;28;20952;-49
2024/03/23 10:59:21;;;;;;;0.30;0.20;;;;;;;8.37;87.19;99832.19;5033407;28;20486;-50
2024/03/23 11:01:58;;;;;;;0.30;0.20;;;;;;;8.89;87.61;99805.06;5028268;28;20984;-49
2024/03/23 11:04:31;;;;;;;0.30;0.20;;;;;;;9.15;84.28;99783.06;5034102;28;20216;-49
2024/03/23 11:06:57;;;;;;;0.30;0.20;;;;;;;9.42;83.50;99779.56;5024402;28;20467;-50
2024/03/23 11:09:35;;;;;;;0.30;0.20;;;;;;;9.97;82.15;99788.34;5035564;28;20495;-52
2024/03/23 11:12:32;;;;;;;0.30;0.20;;;;;;;9.97;77.02;99788.34;5023775;28;20217;-51
2024/03/23 11:15:03;;;;;;;0.30;0.20;;;;;;;10.19;80.29;99777.00;5017354;28;20467;-52
2024/03/23 11:17:29;;;;;;;0.30;0.20;;;;;;;10.42;80.29;99779.72;5023518;28;20512;-51
2024/03/23 11:20:03;;;;;;;0.30;0.20;;;;;;;10.93;76.98;99784.00;5036914;28;20479;-52
2024/03/23 11:22:40;;;;;;;0.30;0.20;;;;;;;10.71;77.64;99785.78;5022999;28;20731;-50
2024/03/23 11:25:17;;;;;;;0.30;0.20;;;;;;;11.17;76.99;99784.88;5066979;28;20478;-50
2024/03/23 11:27:45;;;;;;;0.30;0.20;;;;;;;11.43;74.48;99779.38;5035389;28;20454;-50
2024/03/23 11:30:15;;;;;;;0.30;0.20;;;;;;;11.68;75.18;99771.28;5034028;28;20486;-51
2024/03/23 11:32:42;;;;;;;0.30;0.20;;;;;;;11.82;73.69;99768.94;5026342;28;20467;-50
2024/03/23 11:35:09;;;;;;;0.30;0.20;;;;;;;11.58;74.31;99781.41;5030996;28;20979;-50